createdAt,value
2022-12-15T00:02:38.066Z,-7.28
2022-12-15T00:06:58.884Z,-7.41
2022-12-15T00:11:20.769Z,-7.46
2022-12-15T00:15:41.408Z,-7.34
2022-12-15T00:20:03.151Z,-7.34
2022-12-15T00:24:24.425Z,-7.11
2022-12-15T00:28:44.802Z,-7.44
2022-12-15T00:33:05.315Z,-7.61
2022-12-15T00:37:27.362Z,-7.68
2022-12-15T00:41:30.427Z,-7.75
2022-12-15T00:45:47.511Z,-7.69
2022-12-15T00:50:08.247Z,-7.90
2022-12-15T00:54:30.432Z,-7.90
2022-12-15T00:58:51.058Z,-7.85
2022-12-15T01:03:12.118Z,-7.86
2022-12-15T01:07:33.287Z,-7.95
2022-12-15T01:11:55.394Z,-7.83
2022-12-15T01:16:16.202Z,-7.47
2022-12-15T01:20:19.359Z,-7.41
2022-12-15T01:24:22.382Z,-7.29
2022-12-15T01:28:26.847Z,-7.63
2022-12-15T01:32:30.222Z,-7.53
2022-12-15T01:36:33.291Z,-7.62
2022-12-15T01:40:50.234Z,-7.74
2022-12-15T01:44:55.377Z,-7.65
2022-12-15T01:49:09.145Z,-7.79
2022-12-15T01:53:14.071Z,-7.73
2022-12-15T01:57:21.818Z,-7.86
2022-12-15T02:01:26.452Z,-7.35
2022-12-15T02:05:31.868Z,-6.92
2022-12-15T02:09:34.971Z,-6.99
2022-12-15T02:13:50.041Z,-6.95
2022-12-15T02:18:07.059Z,-7.12
2022-12-15T02:22:25.144Z,-7.23
2022-12-15T02:27:16.140Z,-7.08
2022-12-15T02:31:41.989Z,-7.35
2022-12-15T02:36:06.984Z,-7.25
2022-12-15T02:40:12.015Z,-7.32
2022-12-15T02:44:19.197Z,-6.61
2022-12-15T02:48:33.723Z,-6.66
2022-12-15T02:52:50.294Z,-6.62
2022-12-15T02:57:04.027Z,-6.51
2022-12-15T03:01:17.133Z,-6.55
2022-12-15T03:05:24.117Z,-6.88
2022-12-15T03:09:27.251Z,-6.97
2022-12-15T03:13:30.665Z,-6.67
2022-12-15T03:17:34.094Z,-6.72
2022-12-15T03:21:38.474Z,-6.60
2022-12-15T03:25:41.572Z,-6.67
2022-12-15T03:29:44.633Z,-6.76
2022-12-15T03:33:47.672Z,-6.90
2022-12-15T03:37:52.077Z,-7.07
2022-12-15T03:41:55.140Z,-7.18
2022-12-15T03:45:58.242Z,-7.15
2022-12-15T03:50:01.298Z,-6.90
2022-12-15T03:54:05.755Z,-7.19
2022-12-15T03:58:08.847Z,-7.37
2022-12-15T04:02:13.098Z,-7.30
2022-12-15T04:06:16.265Z,-7.29
2022-12-15T04:10:20.909Z,-7.00
2022-12-15T04:14:23.973Z,-7.20
2022-12-15T04:18:27.039Z,-7.20
2022-12-15T04:22:30.065Z,-7.10
2022-12-15T04:26:52.064Z,-7.26
2022-12-15T04:31:16.009Z,-7.24
2022-12-15T04:35:36.747Z,-7.17
2022-12-15T04:39:59.532Z,-7.40
2022-12-15T04:44:21.839Z,-7.08
2022-12-15T04:48:42.519Z,-7.20
2022-12-15T04:53:02.875Z,-7.35
2022-12-15T04:57:23.676Z,-7.55
2022-12-15T05:01:46.478Z,-7.55
2022-12-15T05:06:07.161Z,-7.32
2022-12-15T05:10:27.664Z,-7.06
2022-12-15T05:14:49.637Z,-7.12
2022-12-15T05:19:11.488Z,-7.12
2022-12-15T05:23:33.098Z,-6.91
2022-12-15T05:27:53.596Z,-6.71
2022-12-15T05:31:56.983Z,-6.25
2022-12-15T05:36:01.445Z,-5.98
2022-12-15T05:40:04.834Z,-5.96
2022-12-15T05:44:08.426Z,-5.99
2022-12-15T05:48:11.527Z,-6.05
2022-12-15T05:52:15.925Z,-6.31
2022-12-15T05:56:18.979Z,-6.47
2022-12-15T06:00:22.303Z,-6.42
2022-12-15T06:04:25.646Z,-6.60
2022-12-15T06:08:30.539Z,-6.72
2022-12-15T06:12:33.639Z,-6.83
2022-12-15T06:16:42.564Z,-6.86
2022-12-15T06:20:58.832Z,-6.99
2022-12-15T06:25:03.557Z,-6.71
2022-12-15T06:29:08.978Z,-6.78
2022-12-15T06:33:12.212Z,-6.51
2022-12-15T06:37:15.429Z,-6.67
2022-12-15T06:41:22.507Z,-6.79
2022-12-15T06:45:25.575Z,-6.80
2022-12-15T06:49:28.625Z,-6.89
2022-12-15T06:53:32.182Z,-6.99
2022-12-15T06:57:37.397Z,-7.05
2022-12-15T07:01:41.938Z,-7.08
2022-12-15T07:05:46.479Z,-7.22
2022-12-15T07:09:49.860Z,-7.38
2022-12-15T07:13:54.949Z,-7.32
2022-12-15T07:17:58.012Z,-7.42
2022-12-15T07:22:01.550Z,-7.17
2022-12-15T07:26:11.089Z,-7.04
2022-12-15T07:30:17.670Z,-7.19
2022-12-15T07:34:21.004Z,-7.21
2022-12-15T07:38:24.154Z,-7.31
2022-12-15T07:42:30.174Z,-7.40
2022-12-15T07:46:34.710Z,-7.45
2022-12-15T07:50:39.736Z,-7.42
2022-12-15T07:54:42.816Z,-7.51
2022-12-15T07:58:46.025Z,-7.07
2022-12-15T08:02:50.832Z,-6.65
2022-12-15T08:06:55.071Z,-6.31
2022-12-15T08:10:58.128Z,-6.72
2022-12-15T08:15:01.247Z,-6.41
2022-12-15T08:19:06.910Z,-6.46
2022-12-15T08:23:09.994Z,-6.24
2022-12-15T08:27:13.276Z,-6.10
2022-12-15T08:31:18.780Z,-6.11
2022-12-15T08:35:54.404Z,-6.20
2022-12-15T08:39:46.434Z,-5.79
2022-12-15T08:43:50.471Z,-5.80
2022-12-15T08:47:53.586Z,-5.59
2022-12-15T08:51:58.074Z,-5.35
2022-12-15T08:56:03.739Z,-4.82
2022-12-15T09:00:08.072Z,-4.17
2022-12-15T09:04:11.703Z,-3.98
2022-12-15T09:08:18.826Z,-3.52
2022-12-15T09:12:22.788Z,-3.15
2022-12-15T09:16:29.017Z,-2.94
2022-12-15T09:20:32.675Z,-2.78
2022-12-15T09:24:37.859Z,-2.02
2022-12-15T09:28:43.034Z,-2.10
2022-12-15T09:32:46.811Z,-1.64
2022-12-15T09:36:50.309Z,-1.26
2022-12-15T09:40:55.299Z,-0.90
2022-12-15T09:45:04.419Z,-0.25
2022-12-15T09:49:18.163Z,-0.66
2022-12-15T09:53:53.635Z,0.07
2022-12-15T09:57:55.061Z,0.55
2022-12-15T10:02:19.948Z,0.37
2022-12-15T10:06:33.111Z,0.31
2022-12-15T10:10:54.383Z,0.61
2022-12-15T10:15:12.090Z,0.04
2022-12-15T10:19:20.339Z,0.61
2022-12-15T10:23:23.438Z,0.63
2022-12-15T10:28:00.539Z,0.61
2022-12-15T10:32:11.383Z,0.43
2022-12-15T10:36:17.656Z,0.27
2022-12-15T10:40:50.245Z,0.43
2022-12-15T10:44:56.491Z,0.72
2022-12-15T10:49:22.310Z,0.71
2022-12-15T10:53:41.259Z,0.35
2022-12-15T10:57:59.917Z,0.53
2022-12-15T11:02:29.803Z,1.10
2022-12-15T11:06:37.085Z,0.36
2022-12-15T11:11:18.433Z,1.13
2022-12-15T11:15:40.432Z,1.32
2022-12-15T11:19:56.583Z,0.92
2022-12-15T11:24:10.752Z,0.81
2022-12-15T11:28:19.528Z,1.50
2022-12-15T11:32:26.322Z,2.15
2022-12-15T11:36:58.483Z,2.88
2022-12-15T11:41:12.640Z,2.96
2022-12-15T11:45:22.424Z,2.73
2022-12-15T11:49:55.694Z,2.06
2022-12-15T11:54:11.208Z,4.61
2022-12-15T11:58:40.409Z,4.38
2022-12-15T12:03:21.262Z,3.56
2022-12-15T12:07:40.136Z,3.17
2022-12-15T12:11:51.525Z,2.87
2022-12-15T12:16:09.476Z,3.26
2022-12-15T12:20:21.901Z,2.93
2022-12-15T12:24:31.704Z,3.35
2022-12-15T12:28:44.477Z,4.02
2022-12-15T12:33:24.492Z,3.13
2022-12-15T12:37:34.995Z,3.88
2022-12-15T12:41:45.168Z,4.17
2022-12-15T12:45:56.106Z,4.37
2022-12-15T12:50:04.866Z,4.74
2022-12-15T12:54:41.912Z,4.48
2022-12-15T12:58:45.476Z,3.93
2022-12-15T13:02:58.114Z,5.02
2022-12-15T13:07:08.853Z,4.24
2022-12-15T13:12:00.874Z,2.50
2022-12-15T13:16:10.007Z,2.65
2022-12-15T13:20:32.182Z,4.70
2022-12-15T13:24:42.807Z,3.19
2022-12-15T13:28:50.696Z,2.42
2022-12-15T13:32:56.217Z,2.99
2022-12-15T13:37:03.173Z,4.23
2022-12-15T13:41:23.445Z,4.52
2022-12-15T13:45:44.612Z,3.56
2022-12-15T13:54:29.053Z,3.08
2022-12-15T13:58:42.012Z,2.95
2022-12-15T14:02:45.688Z,3.18
2022-12-15T14:06:51.636Z,2.36
2022-12-15T14:10:56.779Z,3.34
2022-12-15T14:15:01.444Z,3.28
2022-12-15T14:19:14.219Z,3.00
2022-12-15T14:23:20.906Z,3.49
2022-12-15T14:27:25.591Z,3.02
2022-12-15T14:31:32.259Z,3.21
2022-12-15T14:35:42.418Z,2.10
2022-12-15T14:39:50.401Z,2.70
2022-12-15T14:44:37.085Z,2.14
2022-12-15T14:48:40.996Z,3.55
2022-12-15T14:52:46.285Z,3.45
2022-12-15T14:56:58.133Z,3.02
2022-12-15T15:01:02.830Z,1.76
2022-12-15T15:03:11.640Z,2.66
2022-12-15T15:05:28.080Z,2.22
2022-12-15T15:09:34.213Z,1.61
2022-12-15T15:13:40.891Z,0.88
2022-12-15T15:17:50.047Z,0.81
2022-12-15T15:21:55.149Z,0.07
2022-12-15T15:26:08.171Z,-0.26
2022-12-15T15:30:22.585Z,-0.67
2022-12-15T15:34:26.991Z,-0.90
2022-12-15T15:38:35.065Z,-1.33
2022-12-15T15:42:39.096Z,-1.53
2022-12-15T15:46:47.696Z,-2.01
2022-12-15T15:51:14.853Z,-2.06
2022-12-15T15:55:26.660Z,-2.04
2022-12-15T15:59:31.164Z,-2.13
2022-12-15T16:03:35.463Z,-2.27
2022-12-15T16:07:39.795Z,-2.47
2022-12-15T16:11:45.373Z,-2.64
2022-12-15T16:15:49.567Z,-2.55
2022-12-15T16:19:52.805Z,-2.59
2022-12-15T16:23:58.048Z,-2.75
2022-12-15T16:28:02.568Z,-2.80
2022-12-15T16:32:06.055Z,-2.77
2022-12-15T16:36:13.203Z,-2.80
2022-12-15T16:40:22.086Z,-2.97
2022-12-15T16:44:29.396Z,-3.15
2022-12-15T16:48:33.254Z,-3.11
2022-12-15T16:52:36.600Z,-3.26
2022-12-15T16:56:39.886Z,-3.28
2022-12-15T17:00:46.614Z,-3.38
2022-12-15T17:04:50.375Z,-3.63
2022-12-15T17:08:56.198Z,-3.81
2022-12-15T17:13:08.690Z,-3.95
2022-12-15T17:17:16.049Z,-3.76
2022-12-15T17:21:21.314Z,-3.64
2022-12-15T17:25:46.092Z,-3.81
2022-12-15T17:29:49.827Z,-3.75
2022-12-15T17:33:54.325Z,-3.64
2022-12-15T17:37:57.490Z,-3.58
2022-12-15T17:42:02.098Z,-3.53
2022-12-15T17:46:06.160Z,-3.71
2022-12-15T17:50:11.548Z,-3.76
2022-12-15T17:54:16.019Z,-3.84
2022-12-15T17:58:20.736Z,-3.93
2022-12-15T18:02:24.125Z,-4.15
2022-12-15T18:06:29.074Z,-4.28
2022-12-15T18:10:35.022Z,-3.98
2022-12-15T18:14:39.261Z,-4.03
2022-12-15T18:18:44.293Z,-4.30
2022-12-15T18:22:50.159Z,-4.51
2022-12-15T18:26:53.954Z,-4.77
2022-12-15T18:31:01.823Z,-4.92
2022-12-15T18:35:14.262Z,-5.00
2022-12-15T18:39:24.037Z,-5.15
2022-12-15T18:43:31.263Z,-5.27
2022-12-15T18:47:34.658Z,-5.32
2022-12-15T18:51:39.178Z,-4.87
2022-12-15T18:55:43.858Z,-5.21
2022-12-15T18:59:47.117Z,-5.02
2022-12-15T19:03:50.970Z,-5.21
2022-12-15T19:07:59.811Z,-5.40
2022-12-15T19:12:19.703Z,-5.59
2022-12-15T19:16:23.310Z,-5.77
2022-12-15T19:20:44.054Z,-5.69
2022-12-15T19:24:56.051Z,-5.71
2022-12-15T19:29:00.883Z,-5.40
2022-12-15T19:33:04.254Z,-5.18
2022-12-15T19:37:12.708Z,-5.18
2022-12-15T19:41:18.658Z,-5.49
2022-12-15T19:45:25.575Z,-5.25
2022-12-15T19:49:29.127Z,-5.41
2022-12-15T19:53:33.043Z,-5.28
2022-12-15T19:57:36.499Z,-5.32
2022-12-15T20:01:41.088Z,-5.55
2022-12-15T20:05:44.635Z,-5.67
2022-12-15T20:09:47.723Z,-5.81
2022-12-15T20:13:51.964Z,-5.88
2022-12-15T20:17:57.533Z,-5.79
2022-12-15T20:22:03.500Z,-5.80
2022-12-15T20:26:07.442Z,-5.77
2022-12-15T20:30:18.874Z,-5.67
2022-12-15T20:34:23.634Z,-5.75
2022-12-15T20:38:31.826Z,-5.75
2022-12-15T20:42:35.144Z,-5.69
2022-12-15T20:46:39.155Z,-5.88
2022-12-15T20:50:47.468Z,-5.77
2022-12-15T20:54:51.295Z,-6.00
2022-12-15T20:58:57.135Z,-6.13
2022-12-15T21:03:01.032Z,-6.25
2022-12-15T21:07:07.387Z,-6.22
2022-12-15T21:11:16.847Z,-6.21
2022-12-15T21:15:21.857Z,-6.36
2022-12-15T21:19:25.311Z,-6.49
2022-12-15T21:23:32.390Z,-6.60
2022-12-15T21:27:35.451Z,-6.28
2022-12-15T21:31:38.828Z,-6.24
2022-12-15T21:35:46.145Z,-6.29
2022-12-15T21:39:50.645Z,-6.47
2022-12-15T21:43:54.983Z,-6.39
2022-12-15T21:48:16.108Z,-6.64
2022-12-15T21:52:19.834Z,-6.69
2022-12-15T21:56:24.250Z,-6.82
2022-12-15T22:00:27.669Z,-6.98
2022-12-15T22:04:33.104Z,-6.82
2022-12-15T22:08:36.335Z,-6.80
2022-12-15T22:12:42.852Z,-7.06
2022-12-15T22:16:45.900Z,-7.28
2022-12-15T22:20:50.064Z,-7.32
2022-12-15T22:24:53.117Z,-7.48
2022-12-15T22:29:00.564Z,-7.52
2022-12-15T22:33:06.876Z,-7.45
2022-12-15T22:37:10.407Z,-7.57
2022-12-15T22:41:19.403Z,-7.24
2022-12-15T22:45:25.017Z,-6.98
2022-12-15T22:49:31.325Z,-7.05
2022-12-15T22:53:36.346Z,-7.13
2022-12-15T22:57:39.554Z,-7.07
2022-12-15T23:01:44.910Z,-7.24
2022-12-15T23:05:48.944Z,-7.40
2022-12-15T23:10:12.311Z,-7.19
2022-12-15T23:14:17.134Z,-7.44
2022-12-15T23:18:21.566Z,-7.40
2022-12-15T23:22:24.669Z,-7.48
2022-12-15T23:26:27.802Z,-7.61
2022-12-15T23:30:30.985Z,-7.66
2022-12-15T23:34:35.441Z,-7.66
2022-12-15T23:38:38.657Z,-7.84
2022-12-15T23:42:41.757Z,-7.91
2022-12-15T23:46:46.807Z,-7.60
2022-12-15T23:50:51.368Z,-7.68
2022-12-15T23:54:54.987Z,-7.52
2022-12-15T23:59:00.432Z,-7.43
